createdAt,value
2019-03-02T00:02:20.546Z,13.30
2019-03-02T00:04:50.148Z,12.43
2019-03-02T00:07:20.244Z,12.93
2019-03-02T00:09:50.139Z,12.80
2019-03-02T00:12:20.169Z,13.00
2019-03-02T00:14:54.164Z,13.20
2019-03-02T00:17:22.553Z,12.90
2019-03-02T00:19:52.464Z,13.27
2019-03-02T00:22:22.481Z,13.70
2019-03-02T00:24:54.129Z,14.03
2019-03-02T00:27:24.466Z,14.33
2019-03-02T00:29:54.378Z,13.37
2019-03-02T00:32:24.601Z,14.17
2019-03-02T00:34:54.600Z,13.03
2019-03-02T00:37:24.612Z,12.80
2019-03-02T00:39:55.617Z,12.97
2019-03-02T00:42:25.530Z,13.50
2019-03-02T00:44:55.533Z,13.13
2019-03-02T00:47:25.741Z,12.87
2019-03-02T00:49:57.139Z,13.37
2019-03-02T00:52:27.633Z,12.97
2019-03-02T00:54:58.455Z,11.87
2019-03-02T00:57:28.638Z,12.83
2019-03-02T00:59:58.748Z,12.67
2019-03-02T01:02:28.933Z,11.67
2019-03-02T01:05:01.605Z,12.60
2019-03-02T01:07:30.557Z,12.07
2019-03-02T01:10:00.901Z,11.43
2019-03-02T01:12:30.873Z,10.97
2019-03-02T01:15:01.010Z,10.43
2019-03-02T01:17:31.868Z,9.83
2019-03-02T01:20:01.996Z,10.73
2019-03-02T01:22:31.902Z,10.00
2019-03-02T01:25:02.108Z,9.10
2019-03-02T01:27:35.129Z,9.03
2019-03-02T01:30:04.472Z,8.63
2019-03-02T01:32:35.013Z,8.33
2019-03-02T01:35:05.794Z,8.77
2019-03-02T01:37:35.999Z,8.00
2019-03-02T01:40:10.140Z,8.00
2019-03-02T01:42:40.088Z,7.90
2019-03-02T01:45:16.403Z,7.63
2019-03-02T01:47:50.584Z,7.80
2019-03-02T01:50:19.233Z,7.63
2019-03-02T01:52:49.343Z,7.40
2019-03-02T01:55:19.351Z,6.93
2019-03-02T01:57:52.257Z,7.30
2019-03-02T02:00:31.568Z,6.73
2019-03-02T02:03:01.488Z,6.80
2019-03-02T02:05:33.068Z,7.10
2019-03-02T02:08:03.172Z,6.97
2019-03-02T02:10:33.088Z,7.40
2019-03-02T02:13:06.175Z,6.20
2019-03-02T02:15:35.174Z,6.47
2019-03-02T02:18:04.993Z,5.97
2019-03-02T02:20:35.347Z,6.60
2019-03-02T02:23:05.998Z,6.10
2019-03-02T02:25:36.536Z,5.60
2019-03-02T02:28:06.764Z,6.27
2019-03-02T02:30:36.918Z,7.07
2019-03-02T02:33:06.832Z,6.53
2019-03-02T02:35:40.217Z,5.70
2019-03-02T02:38:11.283Z,5.37
2019-03-02T02:40:40.019Z,6.10
2019-03-02T02:43:10.419Z,5.80
2019-03-02T02:45:40.824Z,5.33
2019-03-02T02:48:10.934Z,5.60
2019-03-02T02:50:42.960Z,5.30
2019-03-02T02:53:12.628Z,6.30
2019-03-02T02:55:42.645Z,5.53
2019-03-02T02:58:17.453Z,5.70
2019-03-02T03:00:44.235Z,5.10
2019-03-02T03:03:15.931Z,5.70
2019-03-02T03:05:49.261Z,5.93
2019-03-02T03:08:18.005Z,5.60
2019-03-02T03:10:47.920Z,5.83
2019-03-02T03:13:18.031Z,5.90
2019-03-02T03:15:48.934Z,5.37
2019-03-02T03:18:19.440Z,6.00
2019-03-02T03:20:50.737Z,5.43
2019-03-02T03:23:24.975Z,5.63
2019-03-02T03:25:56.986Z,5.63
2019-03-02T03:28:26.142Z,5.60
2019-03-02T03:30:56.470Z,5.80
2019-03-02T03:33:26.407Z,5.97
2019-03-02T03:35:57.693Z,5.60
2019-03-02T03:38:29.450Z,5.30
2019-03-02T03:41:04.686Z,5.40
2019-03-02T03:43:31.543Z,6.00
2019-03-02T03:46:01.782Z,5.70
2019-03-02T03:48:31.758Z,5.53
2019-03-02T03:51:02.209Z,6.10
2019-03-02T03:53:32.248Z,6.30
2019-03-02T03:56:04.272Z,7.10
2019-03-02T03:58:39.461Z,6.67
2019-03-02T04:01:06.931Z,7.27
2019-03-02T04:03:36.846Z,7.03
2019-03-02T04:06:06.684Z,7.37
2019-03-02T04:08:36.518Z,7.03
2019-03-02T04:11:06.489Z,6.90
2019-03-02T04:13:44.237Z,8.37
2019-03-02T04:16:08.089Z,8.47
2019-03-02T04:18:58.510Z,10.53
2019-03-02T04:21:38.191Z,10.77
2019-03-02T04:24:08.005Z,12.17
2019-03-02T04:26:38.593Z,13.20
2019-03-02T04:29:11.283Z,14.90
2019-03-02T04:31:44.146Z,14.07
2019-03-02T04:34:20.573Z,12.20
2019-03-02T04:36:47.423Z,10.13
2019-03-02T04:39:16.036Z,9.30
2019-03-02T04:41:46.060Z,9.50
2019-03-02T04:44:15.963Z,10.13
2019-03-02T04:46:47.787Z,9.10
2019-03-02T04:49:17.936Z,8.20
2019-03-02T04:51:47.965Z,7.53
2019-03-02T04:54:17.880Z,6.77
2019-03-02T04:56:49.362Z,7.03
2019-03-02T04:59:21.982Z,6.87
2019-03-02T05:01:51.455Z,6.67
2019-03-02T05:04:21.760Z,7.07
2019-03-02T05:06:54.496Z,7.27
2019-03-02T05:09:23.451Z,6.87
2019-03-02T05:11:53.239Z,7.70
2019-03-02T05:14:23.220Z,8.33
2019-03-02T05:16:53.095Z,7.57
2019-03-02T05:19:25.739Z,8.63
2019-03-02T05:21:54.716Z,9.07
2019-03-02T05:24:24.702Z,9.90
2019-03-02T05:26:56.831Z,8.30
2019-03-02T05:29:26.594Z,7.90
2019-03-02T05:31:56.605Z,8.13
2019-03-02T05:34:26.617Z,8.13
2019-03-02T05:36:59.764Z,8.63
2019-03-02T05:39:28.226Z,7.70
2019-03-02T05:41:58.015Z,7.70
2019-03-02T05:44:28.043Z,8.80
2019-03-02T05:47:01.396Z,8.43
2019-03-02T05:49:29.639Z,8.67
2019-03-02T05:51:59.551Z,8.23
2019-03-02T05:54:29.469Z,9.30
2019-03-02T05:57:00.727Z,9.63
2019-03-02T05:59:31.068Z,10.67
2019-03-02T06:02:01.275Z,10.33
2019-03-02T06:04:31.187Z,10.83
2019-03-02T06:07:01.102Z,9.40
2019-03-02T06:09:31.306Z,10.00
2019-03-02T06:12:01.319Z,10.50
2019-03-02T06:14:31.823Z,9.57
2019-03-02T06:17:02.035Z,10.27
2019-03-02T06:19:31.944Z,9.57
2019-03-02T06:22:02.151Z,9.30
2019-03-02T06:24:32.459Z,8.77
2019-03-02T06:27:02.371Z,9.10
2019-03-02T06:29:32.764Z,9.53
2019-03-02T06:32:03.591Z,11.10
2019-03-02T06:34:33.383Z,12.73
2019-03-02T06:37:03.424Z,10.40
2019-03-02T06:39:33.414Z,10.50
2019-03-02T06:42:06.085Z,10.33
2019-03-02T06:44:35.117Z,10.40
2019-03-02T06:47:05.834Z,10.00
2019-03-02T06:49:36.116Z,10.33
2019-03-02T06:52:06.322Z,9.67
2019-03-02T06:54:36.346Z,9.03
2019-03-02T06:57:07.034Z,9.33
2019-03-02T06:59:39.358Z,9.20
2019-03-02T07:02:08.631Z,10.00
2019-03-02T07:04:38.548Z,9.90
2019-03-02T07:07:08.340Z,9.30
2019-03-02T07:09:41.816Z,9.50
2019-03-02T07:12:10.338Z,9.17
2019-03-02T07:14:40.461Z,9.23
2019-03-02T07:17:10.671Z,10.03
2019-03-02T07:19:42.547Z,9.13
2019-03-02T07:22:13.511Z,9.50
2019-03-02T07:24:44.735Z,9.50
2019-03-02T07:27:14.750Z,9.00
2019-03-02T07:29:44.957Z,8.90
2019-03-02T07:32:14.869Z,14.50
2019-03-02T07:34:44.880Z,19.17
2019-03-02T07:37:14.794Z,25.13
2019-03-02T07:39:44.708Z,13.37
2019-03-02T07:42:14.725Z,9.37
2019-03-02T07:44:44.638Z,7.90
2019-03-02T07:47:14.544Z,8.30
2019-03-02T07:49:46.238Z,8.60
2019-03-02T07:52:17.143Z,9.33
2019-03-02T07:54:57.146Z,9.47
2019-03-02T07:57:19.706Z,15.17
2019-03-02T07:59:49.630Z,9.40
2019-03-02T08:02:19.532Z,9.67
2019-03-02T08:04:49.544Z,10.10
2019-03-02T08:07:19.754Z,11.03
2019-03-02T08:09:49.671Z,11.00
2019-03-02T08:12:20.831Z,12.60
2019-03-02T08:14:51.262Z,13.43
2019-03-02T08:17:21.176Z,13.67
2019-03-02T08:19:51.094Z,13.73
2019-03-02T08:22:21.001Z,14.43
2019-03-02T08:24:51.013Z,14.40
2019-03-02T08:27:20.928Z,14.93
2019-03-02T08:29:53.892Z,16.57
2019-03-02T08:32:23.055Z,15.37
2019-03-02T08:34:53.025Z,14.53
2019-03-02T08:37:23.040Z,13.20
2019-03-02T08:39:53.052Z,12.83
2019-03-02T08:42:22.967Z,13.60
2019-03-02T08:44:54.068Z,13.80
2019-03-02T08:47:24.982Z,13.30
2019-03-02T08:49:54.983Z,13.00
2019-03-02T08:52:25.091Z,17.30
2019-03-02T08:54:57.107Z,13.97
2019-03-02T08:57:27.294Z,12.43
2019-03-02T08:59:57.677Z,11.93
2019-03-02T09:02:27.780Z,12.67
2019-03-02T09:04:57.693Z,11.67
2019-03-02T09:07:27.804Z,12.50
2019-03-02T09:09:58.109Z,11.20
2019-03-02T09:12:28.316Z,12.40
2019-03-02T09:14:58.230Z,11.00
2019-03-02T09:17:28.147Z,10.87
2019-03-02T09:20:00.730Z,11.30
2019-03-02T09:22:31.046Z,10.90
2019-03-02T09:25:01.228Z,10.87
2019-03-02T09:27:31.143Z,10.60
2019-03-02T09:30:01.052Z,9.77
2019-03-02T09:32:31.067Z,10.20
2019-03-02T09:35:01.177Z,10.13
2019-03-02T09:37:31.291Z,11.10
2019-03-02T09:40:01.398Z,10.37
2019-03-02T09:42:37.510Z,10.43
2019-03-02T09:45:02.997Z,9.30
2019-03-02T09:47:32.906Z,10.20
2019-03-02T09:50:02.918Z,10.10
2019-03-02T09:52:32.937Z,8.27
2019-03-02T09:55:02.938Z,8.30
2019-03-02T09:57:32.853Z,9.60
2019-03-02T10:00:02.963Z,8.50
2019-03-02T10:02:33.368Z,8.70
2019-03-02T10:05:03.379Z,8.53
2019-03-02T10:07:34.559Z,7.67
2019-03-02T10:10:07.632Z,7.43
2019-03-02T10:12:38.490Z,7.50
2019-03-02T10:15:27.609Z,7.73
2019-03-02T10:17:57.718Z,7.20
2019-03-02T10:20:29.175Z,6.80
2019-03-02T10:23:02.120Z,7.40
2019-03-02T10:25:32.804Z,7.00
2019-03-02T10:28:04.829Z,6.40
2019-03-02T10:30:34.761Z,7.07
2019-03-02T10:33:04.675Z,6.63
2019-03-02T10:35:34.583Z,6.60
2019-03-02T10:38:04.598Z,5.33
2019-03-02T10:40:34.514Z,5.50
2019-03-02T10:43:07.445Z,5.50
2019-03-02T10:45:37.387Z,5.27
2019-03-02T10:48:07.890Z,5.73
2019-03-02T10:50:38.513Z,6.00
2019-03-02T10:53:08.608Z,5.77
2019-03-02T10:55:38.708Z,5.93
2019-03-02T10:58:10.377Z,6.67
2019-03-02T11:00:40.697Z,7.63
2019-03-02T11:03:13.672Z,7.20
2019-03-02T11:05:58.392Z,7.20
2019-03-02T11:08:35.904Z,7.37
2019-03-02T11:11:25.773Z,7.23
2019-03-02T11:14:12.492Z,6.80
2019-03-02T11:16:47.854Z,6.70
2019-03-02T11:19:29.029Z,7.17
2019-03-02T11:22:10.920Z,7.93
2019-03-02T11:24:54.713Z,6.83
2019-03-02T11:27:35.009Z,6.43
2019-03-02T11:30:23.347Z,7.43
2019-03-02T11:32:56.033Z,6.93
2019-03-02T11:35:39.882Z,6.77
2019-03-02T11:38:26.214Z,6.07
2019-03-02T11:40:57.702Z,6.23
2019-03-02T11:43:36.793Z,6.03
2019-03-02T11:46:10.795Z,6.47
2019-03-02T11:48:48.482Z,5.73
2019-03-02T11:51:24.007Z,6.53
2019-03-02T11:53:57.878Z,6.40
2019-03-02T11:56:39.183Z,5.67
2019-03-02T11:59:09.291Z,5.23
2019-03-02T12:01:50.776Z,5.00
2019-03-02T12:04:22.183Z,5.07
2019-03-02T12:06:59.353Z,4.77
2019-03-02T12:09:30.867Z,4.87
2019-03-02T12:12:11.616Z,4.57
2019-03-02T12:14:46.349Z,5.37
2019-03-02T12:17:37.825Z,4.00
2019-03-02T12:20:11.388Z,5.33
2019-03-02T12:22:45.822Z,4.17
2019-03-02T12:25:26.562Z,4.30
2019-03-02T12:28:10.055Z,3.70
2019-03-02T12:30:41.909Z,3.77
2019-03-02T12:33:17.036Z,3.63
2019-03-02T12:35:59.050Z,3.60
2019-03-02T12:38:36.420Z,3.67
2019-03-02T12:41:08.105Z,3.80
2019-03-02T12:43:51.780Z,3.90
2019-03-02T12:46:26.318Z,5.10
2019-03-02T12:49:10.751Z,4.87
2019-03-02T12:51:45.800Z,4.40
2019-03-02T12:54:24.792Z,4.30
2019-03-02T12:56:56.281Z,3.83
2019-03-02T12:59:39.599Z,3.20
2019-03-02T13:02:18.989Z,3.93
2019-03-02T13:04:56.309Z,3.47
2019-03-02T13:07:30.800Z,3.60
2019-03-02T13:10:15.078Z,3.33
2019-03-02T13:12:58.903Z,3.03
2019-03-02T13:15:48.803Z,3.27
2019-03-02T13:18:26.298Z,2.60
2019-03-02T13:21:15.311Z,3.40
2019-03-02T13:23:58.953Z,2.80
2019-03-02T13:26:48.861Z,2.60
2019-03-02T13:29:19.976Z,2.70
2019-03-02T13:31:54.091Z,2.90
2019-03-02T13:34:34.494Z,3.00
2019-03-02T13:37:09.267Z,3.43
2019-03-02T13:39:41.191Z,2.93
2019-03-02T13:42:15.826Z,3.10
2019-03-02T13:45:04.317Z,3.03
2019-03-02T13:47:48.136Z,3.13
2019-03-02T13:50:21.054Z,3.13
2019-03-02T13:52:52.537Z,2.40
2019-03-02T13:55:45.880Z,2.60
2019-03-02T13:58:32.274Z,2.20
2019-03-02T14:01:09.561Z,2.70
2019-03-02T14:03:51.065Z,2.43
2019-03-02T14:06:39.704Z,2.90
2019-03-02T14:09:11.249Z,3.07
2019-03-02T14:11:45.493Z,2.93
2019-03-02T14:14:22.974Z,2.80
2019-03-02T14:17:03.601Z,2.63
2019-03-02T14:19:41.233Z,2.40
2019-03-02T14:22:27.218Z,2.30
2019-03-02T14:25:04.755Z,2.40
2019-03-02T14:27:36.131Z,2.80
2019-03-02T14:30:12.422Z,2.33
2019-03-02T14:32:53.516Z,2.33
2019-03-02T14:35:31.005Z,2.47
2019-03-02T14:38:20.244Z,2.33
2019-03-02T14:40:52.651Z,2.83
2019-03-02T14:43:24.328Z,2.30
2019-03-02T14:45:59.227Z,2.20
2019-03-02T14:48:34.379Z,2.33
2019-03-02T14:51:06.677Z,2.50
2019-03-02T14:53:47.086Z,2.30
2019-03-02T14:56:27.912Z,2.20
2019-03-02T14:58:59.707Z,2.00
2019-03-02T15:01:49.460Z,2.43
2019-03-02T15:04:23.718Z,2.30
2019-03-02T15:07:04.428Z,2.30
2019-03-02T15:09:45.619Z,2.73
2019-03-02T15:12:18.412Z,2.67
2019-03-02T15:15:02.880Z,3.17
2019-03-02T15:17:45.238Z,2.37
2019-03-02T15:20:36.310Z,2.47
2019-03-02T15:23:08.294Z,2.33
2019-03-02T15:25:49.515Z,2.10
2019-03-02T15:28:29.641Z,2.60
2019-03-02T15:31:16.871Z,2.00
2019-03-02T15:33:48.844Z,2.50
2019-03-02T15:36:29.668Z,2.20
2019-03-02T15:39:04.302Z,2.30
2019-03-02T15:41:38.346Z,2.27
2019-03-02T15:44:12.761Z,2.10
2019-03-02T15:46:47.508Z,1.93
2019-03-02T15:49:22.041Z,2.20
2019-03-02T15:51:59.426Z,2.63
2019-03-02T15:54:43.306Z,2.20
2019-03-02T15:57:39.274Z,2.53
2019-03-02T16:00:13.322Z,2.30
2019-03-02T16:02:58.361Z,2.23
2019-03-02T16:05:30.338Z,2.20
2019-03-02T16:08:05.073Z,3.00
2019-03-02T16:10:53.308Z,2.10
2019-03-02T16:13:25.339Z,2.60
2019-03-02T16:15:56.826Z,2.93
2019-03-02T16:18:43.551Z,2.70
2019-03-02T16:21:16.029Z,3.00
2019-03-02T16:23:58.616Z,2.97
2019-03-02T16:26:33.050Z,2.67
2019-03-02T16:29:04.798Z,2.70
2019-03-02T16:31:51.290Z,2.97
2019-03-02T16:34:29.038Z,3.20
2019-03-02T16:37:18.416Z,3.90
2019-03-02T16:40:02.395Z,4.00
2019-03-02T16:42:39.868Z,3.70
2019-03-02T16:45:19.680Z,3.00
2019-03-02T16:47:51.747Z,2.67
2019-03-02T16:50:30.860Z,3.00
2019-03-02T16:53:02.629Z,2.77
2019-03-02T16:55:42.099Z,2.80
2019-03-02T16:58:23.687Z,3.07
2019-03-02T17:01:01.566Z,2.37
2019-03-02T17:03:49.759Z,3.27
2019-03-02T17:06:24.829Z,3.53
2019-03-02T17:08:59.712Z,3.57
2019-03-02T17:11:35.493Z,3.77
2019-03-02T17:14:24.997Z,3.60
2019-03-02T17:17:02.875Z,6.27
2019-03-02T17:19:47.042Z,9.33
2019-03-02T17:22:19.216Z,5.90
2019-03-02T17:24:59.698Z,3.47
2019-03-02T17:27:34.280Z,3.87
2019-03-02T17:30:14.519Z,3.63
2019-03-02T17:32:58.293Z,3.30
2019-03-02T17:35:32.682Z,3.40
2019-03-02T17:38:18.776Z,3.23
2019-03-02T17:41:07.442Z,3.93
2019-03-02T17:43:40.462Z,3.37
2019-03-02T17:46:20.845Z,3.47
2019-03-02T17:48:52.526Z,3.13
2019-03-02T17:51:27.452Z,3.30
2019-03-02T17:54:08.479Z,3.60
2019-03-02T17:56:40.980Z,3.50
2019-03-02T17:59:29.347Z,3.67
2019-03-02T18:02:10.071Z,5.60
2019-03-02T18:04:41.494Z,5.33
2019-03-02T18:07:15.795Z,4.10
2019-03-02T18:10:03.498Z,4.03
2019-03-02T18:12:43.837Z,4.37
2019-03-02T18:15:31.742Z,4.40
2019-03-02T18:18:04.801Z,3.77
2019-03-02T18:20:34.706Z,4.70
2019-03-02T18:23:05.635Z,4.47
2019-03-02T18:25:35.854Z,4.13
2019-03-02T18:28:09.990Z,4.30
2019-03-02T18:30:38.898Z,4.53
2019-03-02T18:33:14.421Z,4.17
2019-03-02T18:35:44.656Z,4.43
2019-03-02T18:38:14.719Z,4.33
2019-03-02T18:40:44.730Z,4.40
2019-03-02T18:43:14.939Z,4.43
2019-03-02T18:45:45.944Z,4.57
2019-03-02T18:48:17.810Z,5.90
2019-03-02T18:50:57.909Z,5.53
2019-03-02T18:53:28.870Z,8.50
2019-03-02T18:56:01.322Z,30.20
2019-03-02T18:58:31.646Z,21.23
2019-03-02T19:01:01.633Z,32.87
2019-03-02T19:03:32.928Z,28.50
2019-03-02T19:06:02.906Z,25.03
2019-03-02T19:08:33.299Z,13.27
2019-03-02T19:11:03.446Z,7.73
2019-03-02T19:13:33.560Z,12.00
2019-03-02T19:16:03.480Z,17.50
2019-03-02T19:18:33.489Z,10.97
2019-03-02T19:21:03.500Z,9.00
2019-03-02T19:23:33.325Z,9.57
2019-03-02T19:26:04.117Z,14.27
2019-03-02T19:28:34.385Z,11.90
2019-03-02T19:31:04.199Z,11.27
2019-03-02T19:33:34.249Z,11.20
2019-03-02T19:36:04.367Z,10.93
2019-03-02T19:38:34.328Z,9.33
2019-03-02T19:41:04.314Z,9.03
2019-03-02T19:43:34.491Z,7.70
2019-03-02T19:46:04.804Z,6.13
2019-03-02T19:48:34.730Z,6.03
2019-03-02T19:51:04.597Z,5.03
2019-03-02T19:53:34.635Z,5.00
2019-03-02T19:56:04.652Z,7.07
2019-03-02T19:58:34.809Z,6.10
2019-03-02T20:01:05.160Z,6.00
2019-03-02T20:03:35.465Z,6.40
2019-03-02T20:06:06.804Z,7.67
2019-03-02T20:08:37.060Z,9.80
2019-03-02T20:11:07.621Z,8.17
2019-03-02T20:13:37.780Z,9.83
2019-03-02T20:16:08.386Z,11.90
2019-03-02T20:18:38.297Z,9.07
2019-03-02T20:21:08.213Z,7.03
2019-03-02T20:23:38.211Z,6.17
2019-03-02T20:26:08.125Z,6.27
2019-03-02T20:28:38.374Z,6.90
2019-03-02T20:31:09.086Z,5.43
2019-03-02T20:33:39.219Z,6.07
2019-03-02T20:36:09.220Z,5.77
2019-03-02T20:38:40.082Z,5.23
2019-03-02T20:41:10.588Z,4.87
2019-03-02T20:43:40.567Z,5.53
2019-03-02T20:46:10.470Z,5.63
2019-03-02T20:48:40.810Z,5.30
2019-03-02T20:51:10.811Z,5.60
2019-03-02T20:53:40.713Z,5.20
2019-03-02T20:56:11.692Z,4.90
2019-03-02T20:58:42.343Z,5.20
2019-03-02T21:01:12.421Z,5.40
2019-03-02T21:03:43.046Z,5.33
2019-03-02T21:06:13.520Z,5.67
2019-03-02T21:08:43.437Z,5.50
2019-03-02T21:11:14.639Z,6.07
2019-03-02T21:13:44.490Z,4.67
2019-03-02T21:16:15.044Z,4.87
2019-03-02T21:18:45.656Z,4.53
2019-03-02T21:21:16.983Z,6.13
2019-03-02T21:23:46.947Z,5.87
2019-03-02T21:26:18.013Z,5.70
2019-03-02T21:28:48.050Z,5.83
2019-03-02T21:31:19.520Z,5.73
2019-03-02T21:33:49.321Z,6.47
2019-03-02T21:36:20.270Z,6.97
2019-03-02T21:38:50.363Z,5.70
2019-03-02T21:41:20.274Z,5.23
2019-03-02T21:43:50.875Z,5.20
2019-03-02T21:46:20.867Z,4.83
2019-03-02T21:48:50.800Z,5.57
2019-03-02T21:51:22.712Z,5.60
2019-03-02T21:53:52.690Z,6.40
2019-03-02T21:56:22.694Z,6.17
2019-03-02T21:58:52.587Z,5.97
2019-03-02T22:01:22.559Z,6.07
2019-03-02T22:03:52.746Z,6.23
2019-03-02T22:06:22.848Z,5.80
2019-03-02T22:08:52.659Z,5.80
2019-03-02T22:11:22.620Z,7.53
2019-03-02T22:13:52.686Z,10.20
2019-03-02T22:16:22.795Z,8.03
2019-03-02T22:18:52.918Z,8.50
2019-03-02T22:21:22.956Z,10.43
2019-03-02T22:23:53.025Z,28.00
2019-03-02T22:26:23.087Z,24.57
2019-03-02T22:28:53.157Z,31.13
2019-03-02T22:31:22.963Z,35.97
2019-03-02T22:33:52.875Z,54.87
2019-03-02T22:36:23.435Z,67.73
2019-03-02T22:38:53.606Z,57.60
2019-03-02T22:41:23.498Z,48.33
2019-03-02T22:43:54.137Z,50.17
2019-03-02T22:46:24.247Z,43.90
2019-03-02T22:48:54.217Z,42.20
2019-03-02T22:51:24.146Z,61.67
2019-03-02T22:53:54.261Z,57.37
2019-03-02T22:56:24.261Z,58.20
2019-03-02T22:58:53.259Z,55.20
2019-03-02T23:01:36.929Z,41.33
2019-03-02T23:04:06.879Z,33.40
2019-03-02T23:06:36.790Z,24.30
2019-03-02T23:09:10.046Z,46.90
2019-03-02T23:11:40.058Z,40.80
2019-03-02T23:14:10.551Z,36.47
2019-03-02T23:16:40.778Z,35.43
2019-03-02T23:19:10.976Z,36.87
2019-03-02T23:21:40.989Z,31.20
2019-03-02T23:24:11.012Z,29.30
2019-03-02T23:26:41.013Z,23.07
2019-03-02T23:29:10.926Z,22.30
2019-03-02T23:31:41.067Z,22.03
2019-03-02T23:34:10.977Z,18.67
2019-03-02T23:36:40.854Z,19.63
2019-03-02T23:39:11.388Z,39.33
2019-03-02T23:41:41.595Z,25.27
2019-03-02T23:44:11.685Z,32.60
2019-03-02T23:46:41.696Z,37.03
2019-03-02T23:49:11.726Z,44.13
2019-03-02T23:51:41.854Z,39.27
2019-03-02T23:54:12.139Z,33.17
2019-03-02T23:56:42.343Z,30.00
2019-03-02T23:59:12.363Z,32.97
